createdAt,value
2023-07-16T00:00:00.697Z,99332
2023-07-16T00:01:01.044Z,99332
2023-07-16T00:02:00.698Z,99335
2023-07-16T00:03:00.795Z,99335
2023-07-16T00:04:00.713Z,99335
2023-07-16T00:05:00.704Z,99335
2023-07-16T00:06:00.710Z,99335
2023-07-16T00:07:00.705Z,99330
2023-07-16T00:08:00.680Z,99330
2023-07-16T00:09:00.685Z,99330
2023-07-16T00:10:00.675Z,99330
2023-07-16T00:11:00.734Z,99330
2023-07-16T00:12:00.769Z,99339
2023-07-16T00:13:00.820Z,99339
2023-07-16T00:14:00.729Z,99339
2023-07-16T00:15:00.697Z,99339
2023-07-16T00:16:00.788Z,99339
2023-07-16T00:17:00.737Z,99334
2023-07-16T00:18:00.770Z,99334
2023-07-16T00:19:00.709Z,99334
2023-07-16T00:20:00.781Z,99334
2023-07-16T00:21:00.677Z,99334
2023-07-16T00:22:00.721Z,99337
2023-07-16T00:23:00.718Z,99337
2023-07-16T00:24:00.734Z,99337
2023-07-16T00:25:00.736Z,99337
2023-07-16T00:26:00.681Z,99337
2023-07-16T00:27:00.709Z,99344
2023-07-16T00:28:00.743Z,99344
2023-07-16T00:29:00.689Z,99344
2023-07-16T00:30:00.757Z,99344
2023-07-16T00:31:01.018Z,99344
2023-07-16T00:32:00.670Z,99346
2023-07-16T00:33:00.787Z,99346
2023-07-16T00:34:00.722Z,99346
2023-07-16T00:35:01.301Z,99346
2023-07-16T00:36:01.269Z,99346
2023-07-16T00:37:00.748Z,99357
2023-07-16T00:38:00.699Z,99357
2023-07-16T00:39:00.727Z,99357
2023-07-16T00:40:00.702Z,99357
2023-07-16T00:41:00.705Z,99357
2023-07-16T00:42:00.699Z,99361
2023-07-16T00:43:00.695Z,99361
2023-07-16T00:44:00.676Z,99361
2023-07-16T00:45:00.819Z,99361
2023-07-16T00:46:00.879Z,99361
2023-07-16T00:47:00.962Z,99367
2023-07-16T00:48:00.799Z,99367
2023-07-16T00:49:00.964Z,99367
2023-07-16T00:50:01.046Z,99367
2023-07-16T00:51:01.753Z,99367
2023-07-16T00:52:00.939Z,99371
2023-07-16T00:53:01.364Z,99371
2023-07-16T00:54:01.204Z,99371
2023-07-16T00:55:00.878Z,99371
2023-07-16T00:56:00.883Z,99371
2023-07-16T00:57:00.738Z,99374
2023-07-16T00:58:01.661Z,99374
2023-07-16T00:59:00.685Z,99374
2023-07-16T01:00:00.744Z,99374
2023-07-16T01:01:00.707Z,99374
2023-07-16T01:02:00.880Z,99383
2023-07-16T01:03:01.840Z,99383
2023-07-16T01:04:00.758Z,99383
2023-07-16T01:05:00.802Z,99383
2023-07-16T01:06:04.395Z,99383
2023-07-16T01:07:04.568Z,99384
2023-07-16T01:08:04.185Z,99384
2023-07-16T01:09:03.359Z,99384
2023-07-16T01:10:01.259Z,99384
2023-07-16T01:11:02.544Z,99384
2023-07-16T01:12:00.746Z,99401
2023-07-16T01:13:00.750Z,99401
2023-07-16T01:14:01.672Z,99401
2023-07-16T01:15:00.847Z,99401
2023-07-16T01:16:00.940Z,99401
2023-07-16T01:17:07.887Z,99406
2023-07-16T01:18:00.789Z,99406
2023-07-16T01:19:00.715Z,99406
2023-07-16T01:20:00.755Z,99406
2023-07-16T01:21:00.701Z,99406
2023-07-16T01:22:00.667Z,99414
2023-07-16T01:23:10.664Z,99414
2023-07-16T01:24:01.670Z,99414
2023-07-16T01:25:01.672Z,99414
2023-07-16T01:26:00.664Z,99414
2023-07-16T01:27:03.962Z,99419
2023-07-16T01:28:10.636Z,99419
2023-07-16T01:29:10.602Z,99419
2023-07-16T01:30:02.106Z,99419
2023-07-16T01:31:01.073Z,99419
2023-07-16T01:32:01.993Z,99420
2023-07-16T01:33:02.105Z,99420
2023-07-16T01:34:02.022Z,99420
2023-07-16T01:35:02.067Z,99420
2023-07-16T01:36:01.617Z,99420
2023-07-16T01:37:01.348Z,99422
2023-07-16T01:38:01.013Z,99422
2023-07-16T01:39:01.207Z,99422
2023-07-16T01:40:01.437Z,99422
2023-07-16T01:41:00.689Z,99422
2023-07-16T01:42:01.164Z,99428
2023-07-16T01:43:00.705Z,99428
2023-07-16T01:44:00.780Z,99428
2023-07-16T01:45:00.708Z,99428
2023-07-16T01:46:00.835Z,99428
2023-07-16T01:47:05.350Z,99422
2023-07-16T01:48:10.596Z,99422
2023-07-16T01:49:00.698Z,99422
2023-07-16T01:50:00.795Z,99422
2023-07-16T01:51:01.261Z,99422
2023-07-16T01:52:01.474Z,99434
2023-07-16T01:53:00.750Z,99434
2023-07-16T01:54:00.691Z,99434
2023-07-16T01:55:00.689Z,99434
2023-07-16T01:56:00.943Z,99434
2023-07-16T01:57:00.760Z,99431
2023-07-16T01:58:00.679Z,99431
2023-07-16T01:59:00.764Z,99431
2023-07-16T02:00:00.782Z,99431
2023-07-16T02:01:00.765Z,99431
2023-07-16T02:02:00.718Z,99438
2023-07-16T02:03:00.772Z,99438
2023-07-16T02:04:00.779Z,99438
2023-07-16T02:05:00.759Z,99438
2023-07-16T02:06:00.687Z,99438
2023-07-16T02:07:00.677Z,99437
2023-07-16T02:08:00.703Z,99437
2023-07-16T02:09:00.694Z,99437
2023-07-16T02:10:00.898Z,99437
2023-07-16T02:11:00.677Z,99437
2023-07-16T02:12:00.770Z,99432
2023-07-16T02:13:01.275Z,99432
2023-07-16T02:14:00.774Z,99432
2023-07-16T02:15:00.687Z,99432
2023-07-16T02:16:00.716Z,99432
2023-07-16T02:17:00.681Z,99436
2023-07-16T02:18:00.746Z,99436
2023-07-16T02:19:00.766Z,99436
2023-07-16T02:20:00.876Z,99436
2023-07-16T02:21:00.739Z,99436
2023-07-16T02:22:00.753Z,99430
2023-07-16T02:23:00.742Z,99430
2023-07-16T02:24:00.671Z,99430
2023-07-16T02:25:00.932Z,99430
2023-07-16T02:26:00.924Z,99430
2023-07-16T02:27:00.772Z,99438
2023-07-16T02:28:00.685Z,99438
2023-07-16T02:29:00.768Z,99438
2023-07-16T02:30:00.818Z,99438
2023-07-16T02:31:01.171Z,99438
2023-07-16T02:32:00.765Z,99460
2023-07-16T02:33:00.809Z,99460
2023-07-16T02:34:00.735Z,99460
2023-07-16T02:35:01.043Z,99460
2023-07-16T02:36:00.735Z,99460
2023-07-16T02:37:00.697Z,99464
2023-07-16T02:38:00.750Z,99464
2023-07-16T02:39:00.807Z,99464
2023-07-16T02:40:00.744Z,99464
2023-07-16T02:41:00.704Z,99464
2023-07-16T02:42:00.695Z,99459
2023-07-16T02:43:00.708Z,99459
2023-07-16T02:44:01.608Z,99459
2023-07-16T02:45:00.715Z,99459
2023-07-16T02:46:00.685Z,99459
2023-07-16T02:47:00.783Z,99465
2023-07-16T02:48:00.693Z,99465
2023-07-16T02:49:02.710Z,99465
2023-07-16T02:50:00.728Z,99465
2023-07-16T02:51:00.679Z,99465
2023-07-16T02:52:00.702Z,99481
2023-07-16T02:53:00.885Z,99481
2023-07-16T02:54:00.716Z,99481
2023-07-16T02:55:00.698Z,99481
2023-07-16T02:56:00.717Z,99481
2023-07-16T02:57:00.693Z,99482
2023-07-16T02:58:01.101Z,99482
2023-07-16T02:59:00.685Z,99482
2023-07-16T03:00:00.684Z,99482
2023-07-16T03:01:00.860Z,99482
2023-07-16T03:02:00.806Z,99487
2023-07-16T03:03:00.818Z,99487
2023-07-16T03:04:00.729Z,99487
2023-07-16T03:05:00.763Z,99487
2023-07-16T03:06:00.695Z,99487
2023-07-16T03:07:00.843Z,99491
2023-07-16T03:08:00.710Z,99491
2023-07-16T03:09:00.806Z,99491
2023-07-16T03:10:00.746Z,99491
2023-07-16T03:11:00.820Z,99491
2023-07-16T03:12:00.707Z,99503
2023-07-16T03:13:00.676Z,99503
2023-07-16T03:14:00.726Z,99503
2023-07-16T03:15:00.734Z,99503
2023-07-16T03:16:00.700Z,99503
2023-07-16T03:17:00.731Z,99504
2023-07-16T03:18:00.762Z,99504
2023-07-16T03:19:02.787Z,99504
2023-07-16T03:20:00.893Z,99504
2023-07-16T03:21:00.739Z,99504
2023-07-16T03:22:00.857Z,99516
2023-07-16T03:23:00.737Z,99516
2023-07-16T03:24:00.726Z,99516
2023-07-16T03:25:00.763Z,99516
2023-07-16T03:26:00.718Z,99516
2023-07-16T03:27:12.549Z,99531
2023-07-16T03:28:00.744Z,99531
2023-07-16T03:29:00.758Z,99531
2023-07-16T03:30:00.965Z,99531
2023-07-16T03:31:01.477Z,99531
2023-07-16T03:32:00.707Z,99534
2023-07-16T03:33:00.736Z,99534
2023-07-16T03:34:00.711Z,99534
2023-07-16T03:35:00.743Z,99534
2023-07-16T03:36:00.713Z,99534
2023-07-16T03:37:00.725Z,99544
2023-07-16T03:38:00.675Z,99544
2023-07-16T03:39:00.685Z,99544
2023-07-16T03:40:10.628Z,99544
2023-07-16T03:41:00.944Z,99544
2023-07-16T03:42:00.679Z,99558
2023-07-16T03:43:00.690Z,99558
2023-07-16T03:44:00.724Z,99558
2023-07-16T03:45:00.687Z,99558
2023-07-16T03:46:00.693Z,99558
2023-07-16T03:47:00.834Z,99561
2023-07-16T03:48:00.989Z,99561
2023-07-16T03:49:00.678Z,99561
2023-07-16T03:50:00.793Z,99561
2023-07-16T03:51:00.696Z,99561
2023-07-16T03:52:00.829Z,99562
2023-07-16T03:53:00.866Z,99562
2023-07-16T03:54:00.732Z,99562
2023-07-16T03:55:00.809Z,99562
2023-07-16T03:56:00.696Z,99562
2023-07-16T03:57:00.678Z,99570
2023-07-16T03:58:00.704Z,99570
2023-07-16T03:59:00.710Z,99570
2023-07-16T04:00:01.168Z,99570
2023-07-16T04:01:00.741Z,99570
2023-07-16T04:02:00.777Z,99578
2023-07-16T04:03:00.770Z,99578
2023-07-16T04:04:00.830Z,99578
2023-07-16T04:05:00.757Z,99578
2023-07-16T04:06:04.807Z,99578
2023-07-16T04:07:00.704Z,99580
2023-07-16T04:08:00.816Z,99580
2023-07-16T04:09:00.685Z,99580
2023-07-16T04:10:00.813Z,99580
2023-07-16T04:11:01.311Z,99580
2023-07-16T04:12:00.733Z,99592
2023-07-16T04:13:00.702Z,99592
2023-07-16T04:14:00.724Z,99592
2023-07-16T04:15:00.800Z,99592
2023-07-16T04:16:00.767Z,99592
2023-07-16T04:17:00.918Z,99596
2023-07-16T04:18:00.703Z,99596
2023-07-16T04:19:00.714Z,99596
2023-07-16T04:20:00.711Z,99596
2023-07-16T04:21:00.708Z,99596
2023-07-16T04:22:01.073Z,99593
2023-07-16T04:23:00.756Z,99593
2023-07-16T04:24:01.778Z,99593
2023-07-16T04:25:00.858Z,99593
2023-07-16T04:26:00.727Z,99593
2023-07-16T04:27:00.681Z,99601
2023-07-16T04:28:00.700Z,99601
2023-07-16T04:29:00.732Z,99601
2023-07-16T04:30:00.687Z,99601
2023-07-16T04:31:00.714Z,99601
2023-07-16T04:32:00.675Z,99603
2023-07-16T04:33:00.763Z,99603
2023-07-16T04:34:00.748Z,99603
2023-07-16T04:35:00.678Z,99603
2023-07-16T04:36:00.686Z,99603
2023-07-16T04:37:00.749Z,99603
2023-07-16T04:38:00.716Z,99603
2023-07-16T04:39:00.810Z,99603
2023-07-16T04:40:00.688Z,99603
2023-07-16T04:41:00.688Z,99603
2023-07-16T04:42:00.702Z,99620
2023-07-16T04:43:00.751Z,99620
2023-07-16T04:44:00.679Z,99620
2023-07-16T04:45:00.726Z,99620
2023-07-16T04:46:00.752Z,99620
2023-07-16T04:47:00.733Z,99619
2023-07-16T04:48:00.762Z,99619
2023-07-16T04:49:01.348Z,99619
2023-07-16T04:50:00.733Z,99619
2023-07-16T04:51:00.688Z,99619
2023-07-16T04:52:00.707Z,99630
2023-07-16T04:53:00.704Z,99630
2023-07-16T04:54:00.693Z,99630
2023-07-16T04:55:00.712Z,99630
2023-07-16T04:56:00.691Z,99630
2023-07-16T04:57:00.685Z,99636
2023-07-16T04:58:00.698Z,99636
2023-07-16T04:59:00.710Z,99636
2023-07-16T05:00:00.889Z,99636
2023-07-16T05:01:00.679Z,99636
2023-07-16T05:02:02.468Z,99643
2023-07-16T05:03:00.734Z,99643
2023-07-16T05:04:00.775Z,99643
2023-07-16T05:05:00.684Z,99643
2023-07-16T05:06:00.978Z,99643
2023-07-16T05:07:01.306Z,99654
2023-07-16T05:08:00.877Z,99654
2023-07-16T05:09:00.685Z,99654
2023-07-16T05:10:01.304Z,99654
2023-07-16T05:11:01.437Z,99654
2023-07-16T05:12:00.815Z,99664
2023-07-16T05:13:00.690Z,99664
2023-07-16T05:14:00.724Z,99664
2023-07-16T05:15:00.724Z,99664
2023-07-16T05:16:00.757Z,99664
2023-07-16T05:17:00.915Z,99666
2023-07-16T05:18:00.924Z,99666
2023-07-16T05:19:00.706Z,99666
2023-07-16T05:20:00.757Z,99666
2023-07-16T05:21:00.686Z,99666
2023-07-16T05:22:00.691Z,99674
2023-07-16T05:23:00.763Z,99674
2023-07-16T05:24:00.686Z,99674
2023-07-16T05:25:00.856Z,99674
2023-07-16T05:26:00.679Z,99674
2023-07-16T05:27:00.685Z,99677
2023-07-16T05:28:00.674Z,99677
2023-07-16T05:29:00.697Z,99677
2023-07-16T05:30:00.688Z,99677
2023-07-16T05:31:01.252Z,99677
2023-07-16T05:32:00.770Z,99686
2023-07-16T05:33:00.694Z,99686
2023-07-16T05:34:00.696Z,99686
2023-07-16T05:35:03.235Z,99686
2023-07-16T05:36:00.765Z,99686
2023-07-16T05:37:00.778Z,99684
2023-07-16T05:38:00.694Z,99684
2023-07-16T05:39:00.680Z,99684
2023-07-16T05:40:00.759Z,99684
2023-07-16T05:41:02.642Z,99684
2023-07-16T05:42:00.713Z,99698
2023-07-16T05:43:00.771Z,99698
2023-07-16T05:44:00.696Z,99698
2023-07-16T05:45:00.698Z,99698
2023-07-16T05:46:00.731Z,99698
2023-07-16T05:47:00.738Z,99710
2023-07-16T05:48:00.699Z,99710
2023-07-16T05:49:00.776Z,99710
2023-07-16T05:50:00.779Z,99710
2023-07-16T05:51:00.736Z,99710
2023-07-16T05:52:00.681Z,99711
2023-07-16T05:53:00.692Z,99711
2023-07-16T05:54:00.687Z,99711
2023-07-16T05:55:00.746Z,99711
2023-07-16T05:56:00.670Z,99711
2023-07-16T05:57:00.684Z,99719
2023-07-16T05:58:00.708Z,99719
2023-07-16T05:59:00.680Z,99719
2023-07-16T06:00:00.763Z,99719
2023-07-16T06:01:00.757Z,99719
2023-07-16T06:02:00.753Z,99720
2023-07-16T06:03:02.093Z,99720
2023-07-16T06:04:00.782Z,99720
2023-07-16T06:05:00.730Z,99720
2023-07-16T06:06:00.755Z,99720
2023-07-16T06:07:00.705Z,99727
2023-07-16T06:08:01.084Z,99727
2023-07-16T06:09:00.689Z,99727
2023-07-16T06:10:00.673Z,99727
2023-07-16T06:11:00.701Z,99727
2023-07-16T06:12:00.682Z,99730
2023-07-16T06:13:00.790Z,99730
2023-07-16T06:14:00.701Z,99730
2023-07-16T06:15:00.842Z,99730
2023-07-16T06:16:00.745Z,99730
2023-07-16T06:17:00.723Z,99724
2023-07-16T06:18:01.057Z,99724
2023-07-16T06:19:00.713Z,99724
2023-07-16T06:20:01.694Z,99724
2023-07-16T06:21:00.715Z,99724
2023-07-16T06:22:00.732Z,99723
2023-07-16T06:23:01.009Z,99723
2023-07-16T06:24:00.898Z,99723
2023-07-16T06:25:00.835Z,99723
2023-07-16T06:26:00.699Z,99723
2023-07-16T06:27:00.762Z,99744
2023-07-16T06:28:00.687Z,99744
2023-07-16T06:29:00.728Z,99744
2023-07-16T06:30:00.744Z,99744
2023-07-16T06:31:00.773Z,99744
2023-07-16T06:32:00.753Z,99745
2023-07-16T06:33:00.751Z,99745
2023-07-16T06:34:00.748Z,99745
2023-07-16T06:35:00.744Z,99745
2023-07-16T06:36:00.747Z,99745
2023-07-16T06:37:00.716Z,99763
2023-07-16T06:38:00.820Z,99763
2023-07-16T06:39:00.706Z,99763
2023-07-16T06:40:00.695Z,99763
2023-07-16T06:41:00.679Z,99763
2023-07-16T06:42:00.699Z,99778
2023-07-16T06:43:00.710Z,99778
2023-07-16T06:44:00.669Z,99778
2023-07-16T06:45:01.019Z,99778
2023-07-16T06:46:00.783Z,99778
2023-07-16T06:47:00.659Z,99790
2023-07-16T06:48:00.715Z,99790
2023-07-16T06:49:00.677Z,99790
2023-07-16T06:50:00.679Z,99790
2023-07-16T06:51:00.847Z,99790
2023-07-16T06:52:00.900Z,99799
2023-07-16T06:53:00.884Z,99799
2023-07-16T06:54:00.669Z,99799
2023-07-16T06:55:00.815Z,99799
2023-07-16T06:56:00.688Z,99799
2023-07-16T06:57:00.681Z,99803
2023-07-16T06:58:00.906Z,99803
2023-07-16T06:59:00.730Z,99803
2023-07-16T07:00:00.758Z,99803
2023-07-16T07:01:00.708Z,99803
2023-07-16T07:06:02.071Z,99802
2023-07-16T07:07:00.549Z,99806
2023-07-16T07:08:00.535Z,99806
2023-07-16T07:09:00.528Z,99806
2023-07-16T07:10:00.520Z,99806
2023-07-16T07:11:00.565Z,99806
2023-07-16T07:12:00.667Z,99811
2023-07-16T07:13:00.571Z,99811
2023-07-16T07:14:00.527Z,99811
2023-07-16T07:15:00.529Z,99811
2023-07-16T07:16:00.646Z,99811
2023-07-16T07:17:00.543Z,99830
2023-07-16T07:18:00.622Z,99830
2023-07-16T07:19:00.514Z,99830
2023-07-16T07:20:01.006Z,99830
2023-07-16T07:21:00.692Z,99830
2023-07-16T07:22:00.576Z,99834
2023-07-16T07:23:00.611Z,99834
2023-07-16T07:24:00.540Z,99834
2023-07-16T07:25:00.737Z,99834
2023-07-16T07:26:00.543Z,99834
2023-07-16T07:27:00.536Z,99836
2023-07-16T07:28:00.570Z,99836
2023-07-16T07:29:00.595Z,99836
2023-07-16T07:30:00.532Z,99836
2023-07-16T07:31:01.087Z,99836
2023-07-16T07:32:00.543Z,99843
2023-07-16T07:33:00.604Z,99843
2023-07-16T07:34:00.522Z,99843
2023-07-16T07:35:03.417Z,99843
2023-07-16T07:36:00.540Z,99843
2023-07-16T07:37:00.517Z,99862
2023-07-16T07:38:00.547Z,99862
2023-07-16T07:39:00.532Z,99862
2023-07-16T07:40:00.585Z,99862
2023-07-16T07:41:00.590Z,99862
2023-07-16T07:42:00.523Z,99878
2023-07-16T07:43:00.546Z,99878
2023-07-16T07:44:00.556Z,99878
2023-07-16T07:45:00.569Z,99878
2023-07-16T07:46:00.610Z,99878
2023-07-16T07:47:00.541Z,99881
2023-07-16T07:48:00.651Z,99881
2023-07-16T07:49:00.520Z,99881
2023-07-16T07:50:00.526Z,99881
2023-07-16T07:51:00.550Z,99881
2023-07-16T07:52:00.565Z,99879
2023-07-16T07:53:00.594Z,99879
2023-07-16T07:54:00.527Z,99879
2023-07-16T07:55:00.516Z,99879
2023-07-16T07:56:00.640Z,99879
2023-07-16T07:57:01.083Z,99889
2023-07-16T07:58:00.764Z,99889
2023-07-16T07:59:00.556Z,99889
2023-07-16T08:00:00.574Z,99889
2023-07-16T08:01:07.876Z,99889
2023-07-16T08:02:00.924Z,99885
2023-07-16T08:03:00.683Z,99885
2023-07-16T08:04:00.707Z,99885
2023-07-16T08:05:03.107Z,99885
2023-07-16T08:06:00.703Z,99885
2023-07-16T08:07:00.576Z,99882
2023-07-16T08:08:00.534Z,99882
2023-07-16T08:09:00.537Z,99882
2023-07-16T08:10:00.525Z,99882
2023-07-16T08:11:00.612Z,99882
2023-07-16T08:12:00.610Z,99891
2023-07-16T08:13:00.627Z,99891
2023-07-16T08:14:00.554Z,99891
2023-07-16T08:15:00.659Z,99891
2023-07-16T08:16:00.530Z,99891
2023-07-16T08:17:00.742Z,99887
2023-07-16T08:18:00.612Z,99887
2023-07-16T08:19:00.542Z,99887
2023-07-16T08:20:00.544Z,99887
2023-07-16T08:21:00.571Z,99887
2023-07-16T08:22:00.549Z,99888
2023-07-16T08:23:00.582Z,99888
2023-07-16T08:24:00.560Z,99888
2023-07-16T08:25:00.725Z,99888
2023-07-16T08:26:00.519Z,99888
2023-07-16T08:27:00.536Z,99885
2023-07-16T08:28:02.085Z,99885
2023-07-16T08:29:00.636Z,99885
2023-07-16T08:30:00.551Z,99885
2023-07-16T08:31:00.558Z,99885
2023-07-16T08:32:00.582Z,99891
2023-07-16T08:33:00.599Z,99891
2023-07-16T08:34:03.185Z,99891
2023-07-16T08:35:00.590Z,99891
2023-07-16T08:36:00.532Z,99891
2023-07-16T08:37:00.555Z,99908
2023-07-16T08:38:00.537Z,99908
2023-07-16T08:39:00.530Z,99908
2023-07-16T08:40:00.559Z,99908
2023-07-16T08:41:00.761Z,99908
2023-07-16T08:42:01.337Z,99912
2023-07-16T08:43:00.557Z,99912
2023-07-16T08:44:00.923Z,99912
2023-07-16T08:45:01.010Z,99912
2023-07-16T08:46:01.278Z,99912
2023-07-16T08:47:00.695Z,99927
2023-07-16T08:48:00.750Z,99927
2023-07-16T08:49:01.695Z,99927
2023-07-16T08:50:00.773Z,99927
2023-07-16T08:51:02.184Z,99927
2023-07-16T08:52:01.816Z,99931
2023-07-16T08:53:00.973Z,99931
2023-07-16T08:54:00.730Z,99931
2023-07-16T08:55:00.679Z,99931
2023-07-16T08:56:00.533Z,99931
2023-07-16T08:57:01.157Z,99944
2023-07-16T08:58:01.516Z,99944
2023-07-16T08:59:00.876Z,99944
2023-07-16T09:00:01.387Z,99944
2023-07-16T09:01:01.126Z,99944
2023-07-16T09:02:01.161Z,99949
2023-07-16T09:03:00.587Z,99949
2023-07-16T09:04:00.561Z,99949
2023-07-16T09:05:01.279Z,99949
2023-07-16T09:06:01.725Z,99949
2023-07-16T09:07:00.750Z,99944
2023-07-16T09:08:00.588Z,99944
2023-07-16T09:09:00.553Z,99944
2023-07-16T09:10:00.532Z,99944
2023-07-16T09:11:00.534Z,99944
2023-07-16T09:12:01.594Z,99943
2023-07-16T09:13:01.653Z,99943
2023-07-16T09:14:01.853Z,99943
2023-07-16T09:15:01.085Z,99943
2023-07-16T09:16:01.316Z,99943
2023-07-16T09:17:02.005Z,99954
2023-07-16T09:18:00.887Z,99954
2023-07-16T09:19:09.826Z,99954
2023-07-16T09:20:02.381Z,99954
2023-07-16T09:21:00.528Z,99954
2023-07-16T09:22:00.519Z,99962
2023-07-16T09:23:00.559Z,99962
2023-07-16T09:24:00.593Z,99962
2023-07-16T09:25:01.164Z,99962
2023-07-16T09:26:00.631Z,99962
2023-07-16T09:27:00.579Z,99958
2023-07-16T09:28:02.523Z,99958
2023-07-16T09:29:00.544Z,99958
2023-07-16T09:30:00.623Z,99958
2023-07-16T09:31:04.286Z,99958
2023-07-16T09:32:01.096Z,99960
2023-07-16T09:33:17.140Z,99960
2023-07-16T09:34:00.530Z,99960
2023-07-16T09:35:00.614Z,99960
2023-07-16T09:36:00.616Z,99960
2023-07-16T09:37:00.955Z,99960
2023-07-16T09:38:00.843Z,99960
2023-07-16T09:39:01.087Z,99960
2023-07-16T10:01:01.467Z,99973
2023-07-16T10:02:00.997Z,99973
2023-07-16T10:03:00.583Z,99973
2023-07-16T10:04:09.356Z,99976
2023-07-16T10:05:10.831Z,99976
2023-07-16T10:06:08.209Z,99976
2023-07-16T10:07:00.981Z,99976
2023-07-16T10:08:00.631Z,99976
2023-07-16T10:09:00.532Z,99976
2023-07-16T10:10:00.543Z,99983
2023-07-16T10:11:00.574Z,99983
2023-07-16T10:12:10.789Z,99983
2023-07-16T10:13:02.381Z,99983
2023-07-16T10:14:00.529Z,99983
2023-07-16T10:15:00.557Z,99988
2023-07-16T10:16:00.703Z,99988
2023-07-16T10:17:01.728Z,99988
2023-07-16T10:18:00.580Z,99988
2023-07-16T10:19:01.714Z,99988
2023-07-16T10:20:08.535Z,99998
2023-07-16T10:21:02.819Z,99998
2023-07-16T10:22:00.553Z,99998
2023-07-16T10:23:16.293Z,99998
2023-07-16T10:24:00.548Z,99998
2023-07-16T10:25:00.528Z,100003
2023-07-16T10:26:01.496Z,100003
2023-07-16T10:27:00.994Z,100003
2023-07-16T10:28:00.519Z,100003
2023-07-16T10:29:00.580Z,100003
2023-07-16T10:30:01.348Z,99992
2023-07-16T10:31:00.627Z,99992
2023-07-16T10:32:01.427Z,99992
2023-07-16T10:33:10.853Z,99992
2023-07-16T10:34:01.459Z,99992
2023-07-16T10:35:01.171Z,99998
2023-07-16T10:36:00.524Z,99998
2023-07-16T10:37:00.529Z,99998
2023-07-16T10:38:00.564Z,99998
2023-07-16T10:39:02.488Z,99998
2023-07-16T10:40:01.574Z,100013
2023-07-16T10:41:01.089Z,100013
2023-07-16T10:42:01.757Z,100013
2023-07-16T10:43:00.521Z,100013
2023-07-16T10:44:00.844Z,100013
2023-07-16T10:45:02.500Z,100010
2023-07-16T10:46:01.891Z,100010
2023-07-16T10:47:01.393Z,100010
2023-07-16T10:48:00.846Z,100010
2023-07-16T10:49:00.762Z,100010
2023-07-16T10:50:02.984Z,100004
2023-07-16T10:51:00.590Z,100004
2023-07-16T10:52:01.074Z,100004
2023-07-16T10:53:00.555Z,100004
2023-07-16T10:54:00.627Z,100004
2023-07-16T10:55:00.938Z,100004
2023-07-16T10:56:00.862Z,100004
2023-07-16T10:57:00.593Z,100004
2023-07-16T10:58:03.605Z,100004
2023-07-16T10:59:01.422Z,100004
2023-07-16T11:00:00.626Z,100005
2023-07-16T11:01:01.097Z,100005
2023-07-16T11:02:00.520Z,100005
2023-07-16T11:03:00.631Z,100005
2023-07-16T11:04:01.002Z,100005
2023-07-16T11:05:00.518Z,100017
2023-07-16T11:06:05.776Z,100017
2023-07-16T11:07:03.734Z,100017
2023-07-16T11:08:00.729Z,100017
2023-07-16T11:09:08.107Z,100022
2023-07-16T11:10:00.522Z,100022
2023-07-16T11:11:00.588Z,100022
2023-07-16T11:12:06.796Z,100022
2023-07-16T11:13:00.521Z,100022
2023-07-16T11:14:03.161Z,100026
2023-07-16T11:15:00.545Z,100026
2023-07-16T11:16:08.383Z,100026
2023-07-16T11:17:04.415Z,100026
2023-07-16T11:18:01.199Z,100026
2023-07-16T11:19:02.640Z,100035
2023-07-16T11:20:00.536Z,100035
2023-07-16T11:21:00.564Z,100035
2023-07-16T11:22:01.019Z,100035
2023-07-16T11:23:01.556Z,100035
2023-07-16T11:24:08.377Z,100035
2023-07-16T11:25:00.518Z,100035
2023-07-16T11:26:02.066Z,100035
2023-07-16T11:27:00.549Z,100035
2023-07-16T11:28:01.200Z,100035
2023-07-16T11:29:00.565Z,100035
2023-07-16T11:30:00.689Z,100040
2023-07-16T11:31:09.688Z,100040
2023-07-16T11:32:00.646Z,100040
2023-07-16T11:33:00.747Z,100040
2023-07-16T11:34:00.629Z,100040
2023-07-16T11:35:02.728Z,100044
2023-07-16T11:36:01.192Z,100044
2023-07-16T11:37:09.073Z,100044
2023-07-16T11:38:00.670Z,100044
2023-07-16T11:39:02.383Z,100044
2023-07-16T11:40:03.300Z,100034
2023-07-16T11:41:00.640Z,100034
2023-07-16T11:42:01.984Z,100034
2023-07-16T11:43:19.044Z,100034
2023-07-16T11:44:00.912Z,100034
2023-07-16T11:45:00.868Z,100042
2023-07-16T11:46:00.644Z,100042
2023-07-16T11:47:00.902Z,100042
2023-07-16T11:48:00.559Z,100042
2023-07-16T11:49:00.880Z,100042
2023-07-16T11:50:00.593Z,100041
2023-07-16T11:51:00.556Z,100041
2023-07-16T11:52:00.556Z,100041
2023-07-16T11:53:01.113Z,100041
2023-07-16T11:54:00.517Z,100041
2023-07-16T11:55:00.535Z,100047
2023-07-16T11:56:00.527Z,100047
2023-07-16T11:57:00.533Z,100047
2023-07-16T11:58:00.606Z,100047
2023-07-16T11:59:00.551Z,100047
2023-07-16T12:00:00.851Z,100048
2023-07-16T12:01:00.647Z,100048
2023-07-16T12:02:00.558Z,100048
2023-07-16T12:03:00.648Z,100048
2023-07-16T12:04:00.690Z,100048
2023-07-16T12:05:00.571Z,100055
2023-07-16T12:06:00.565Z,100055
2023-07-16T12:07:00.515Z,100055
2023-07-16T12:08:00.531Z,100055
2023-07-16T12:09:00.528Z,100055
2023-07-16T12:10:01.208Z,100059
2023-07-16T12:11:02.799Z,100059
2023-07-16T12:12:00.771Z,100059
2023-07-16T12:13:00.517Z,100059
2023-07-16T12:14:00.610Z,100059
2023-07-16T12:15:00.570Z,100070
2023-07-16T12:16:00.535Z,100070
2023-07-16T12:17:00.631Z,100070
2023-07-16T12:18:00.557Z,100070
2023-07-16T12:19:00.535Z,100070
2023-07-16T12:20:00.977Z,100073
2023-07-16T12:21:00.587Z,100073
2023-07-16T12:22:00.646Z,100073
2023-07-16T12:23:00.558Z,100073
2023-07-16T12:24:00.627Z,100073
2023-07-16T12:25:00.521Z,100092
2023-07-16T12:26:00.548Z,100092
2023-07-16T12:27:00.570Z,100092
2023-07-16T12:28:00.986Z,100092
2023-07-16T12:29:01.011Z,100092
2023-07-16T12:30:00.527Z,100092
2023-07-16T12:31:00.561Z,100092
2023-07-16T12:32:00.606Z,100092
2023-07-16T12:33:00.602Z,100092
2023-07-16T12:34:00.711Z,100092
2023-07-16T12:35:00.586Z,100089
2023-07-16T12:36:01.054Z,100089
2023-07-16T12:37:00.634Z,100089
2023-07-16T12:38:00.602Z,100089
2023-07-16T12:39:00.546Z,100089
2023-07-16T12:40:00.556Z,100101
2023-07-16T12:41:00.527Z,100101
2023-07-16T12:42:00.531Z,100101
2023-07-16T12:43:00.517Z,100101
2023-07-16T12:44:00.698Z,100101
2023-07-16T12:45:01.111Z,100102
2023-07-16T12:46:01.221Z,100102
2023-07-16T12:47:01.027Z,100102
2023-07-16T12:48:00.588Z,100102
2023-07-16T12:49:00.753Z,100102
2023-07-16T12:50:00.582Z,100109
2023-07-16T12:51:00.523Z,100109
2023-07-16T12:52:00.778Z,100109
2023-07-16T12:53:00.537Z,100109
2023-07-16T12:54:00.630Z,100109
2023-07-16T12:55:00.717Z,100098
2023-07-16T12:56:00.686Z,100098
2023-07-16T12:57:00.574Z,100098
2023-07-16T12:58:00.699Z,100098
2023-07-16T12:59:00.541Z,100098
2023-07-16T13:00:00.773Z,100101
2023-07-16T13:01:00.646Z,100101
2023-07-16T13:02:00.589Z,100101
2023-07-16T13:03:00.639Z,100101
2023-07-16T13:04:00.659Z,100101
2023-07-16T13:05:00.805Z,100092
2023-07-16T13:06:00.555Z,100092
2023-07-16T13:07:00.565Z,100092
2023-07-16T13:08:00.557Z,100092
2023-07-16T13:09:00.691Z,100092
2023-07-16T13:10:16.501Z,100100
2023-07-16T13:11:00.705Z,100100
2023-07-16T13:12:00.527Z,100100